Time;durP1;ratioP1;P1;durP2;ratioP2;P2;SDS_P1;SDS_P2;PMS_P1;PMS_P2;Temp;Humidity;BMP_temperature;BMP_pressure;BME280_temperature;BME280_humidity;BME280_pressure;Samples;Min_cycle;Max_cycle;Signal;HPM_P1;HPM_P2
2021/05/04 00:01:33;;;;;;;60.38;25.45;;;-0.30;99.90;;;;;;5073063;28;20024;-77
2021/05/04 00:03:59;;;;;;;64.78;25.65;;;-0.30;99.90;;;;;;5072824;28;20048;-77
2021/05/04 00:06:24;;;;;;;54.92;26.95;;;-0.30;99.90;;;;;;5071648;28;20059;-77
2021/05/04 00:08:50;;;;;;;63.67;29.17;;;-0.30;99.90;;;;;;5072937;28;20436;-77
2021/05/04 00:11:16;;;;;;;65.07;28.92;;;-0.30;99.90;;;;;;5071656;28;20059;-76
2021/05/04 00:13:41;;;;;;;65.45;29.08;;;-0.40;99.90;;;;;;5072823;28;20017;-76
2021/05/04 00:16:07;;;;;;;64.43;29.58;;;-0.30;99.90;;;;;;5072784;28;20470;-77
2021/05/04 00:18:33;;;;;;;66.95;29.30;;;-0.40;99.90;;;;;;5071519;28;20036;-76
2021/05/04 00:20:58;;;;;;;67.00;29.05;;;-0.50;99.90;;;;;;5071542;28;20100;-77
2021/05/04 00:23:24;;;;;;;66.40;30.60;;;-0.40;99.90;;;;;;5072751;28;20428;-77
2021/05/04 00:25:50;;;;;;;55.22;26.08;;;-0.50;99.90;;;;;;5071291;28;20073;-79
2021/05/04 00:28:16;;;;;;;59.08;27.23;;;-0.50;99.90;;;;;;5071434;28;20024;-79
2021/05/04 00:30:41;;;;;;;61.45;28.02;;;-0.50;99.90;;;;;;5071469;28;20114;-79
2021/05/04 00:33:07;;;;;;;62.65;27.58;;;-0.60;99.90;;;;;;5071359;28;20020;-79
2021/05/04 00:35:33;;;;;;;64.75;28.38;;;-0.60;99.90;;;;;;5072713;28;20058;-79
2021/05/04 00:37:58;;;;;;;63.85;29.42;;;-0.60;99.90;;;;;;5071554;28;20031;-79
2021/05/04 00:40:24;;;;;;;66.88;32.42;;;-0.70;99.90;;;;;;5072570;28;20513;-79
2021/05/04 00:42:50;;;;;;;81.63;34.40;;;-0.70;99.90;;;;;;5072522;28;20029;-79
2021/05/04 00:45:15;;;;;;;62.08;30.23;;;-0.70;99.90;;;;;;5072487;28;20028;-79
2021/05/04 00:47:41;;;;;;;69.63;30.60;;;-0.70;99.90;;;;;;5073562;28;20051;-79
2021/05/04 00:50:07;;;;;;;60.80;27.90;;;-0.70;99.90;;;;;;5075235;28;20021;-79
2021/05/04 00:52:33;;;;;;;63.47;29.25;;;-0.70;99.90;;;;;;5075162;28;20031;-79
2021/05/04 00:55:00;;;;;;;63.90;28.92;;;-0.70;99.90;;;;;;5076363;28;20020;-79
2021/05/04 00:57:25;;;;;;;59.33;27.45;;;-0.70;99.90;;;;;;5075018;28;20044;-79
2021/05/04 00:59:53;;;;;;;59.28;27.38;;;-0.70;99.90;;;;;;5076272;28;20067;-79
2021/05/04 01:02:19;;;;;;;61.92;27.27;;;-0.70;99.90;;;;;;5076187;28;20051;-79
2021/05/04 01:04:47;;;;;;;61.00;29.77;;;-0.80;99.90;;;;;;5076166;28;20036;-79
2021/05/04 01:07:12;;;;;;;62.45;29.45;;;-0.80;99.90;;;;;;5074820;28;20074;-79
2021/05/04 01:09:38;;;;;;;50.70;26.80;;;-0.80;99.90;;;;;;5074792;28;20029;-79
2021/05/04 01:12:04;;;;;;;54.03;25.95;;;-0.80;99.90;;;;;;5075913;28;20107;-79
2021/05/04 01:14:30;;;;;;;54.45;25.02;;;-0.80;99.90;;;;;;5076027;28;20021;-79
2021/05/04 01:16:56;;;;;;;51.88;26.92;;;-0.80;99.90;;;;;;5075949;28;20527;-79
2021/05/04 01:19:23;;;;;;;49.28;26.70;;;-0.80;99.90;;;;;;5075943;28;20017;-79
2021/05/04 01:21:49;;;;;;;54.38;24.38;;;-0.80;99.90;;;;;;5075849;28;20147;-79
2021/05/04 01:24:15;;;;;;;50.45;26.00;;;-0.80;99.90;;;;;;5075788;28;20517;-79
2021/05/04 01:26:46;;;;;;;57.53;25.98;;;-0.80;99.90;;;;;;5074508;28;20108;-79
2021/05/04 01:29:13;;;;;;;47.65;26.63;;;-0.90;99.90;;;;;;5074523;28;20020;-79
2021/05/04 01:31:40;;;;;;;54.63;27.02;;;-0.90;99.90;;;;;;5074479;28;20028;-79
2021/05/04 01:34:07;;;;;;;48.72;24.52;;;-1.00;99.90;;;;;;5075590;28;20021;-79
2021/05/04 01:36:33;;;;;;;48.40;24.83;;;-1.00;99.90;;;;;;5074320;28;20025;-79
2021/05/04 01:39:00;;;;;;;47.13;24.52;;;-1.00;99.90;;;;;;5075518;28;20047;-79
2021/05/04 01:41:26;;;;;;;53.35;25.35;;;-1.00;99.90;;;;;;5075571;28;20028;-79
2021/05/04 01:43:51;;;;;;;52.08;25.92;;;-1.00;99.90;;;;;;5075389;28;20032;-79
2021/05/04 01:46:17;;;;;;;51.28;25.90;;;-1.00;99.90;;;;;;5075433;28;20478;-79
2021/05/04 01:48:43;;;;;;;49.13;24.70;;;-1.10;99.90;;;;;;5075423;28;20056;-79
2021/05/04 01:51:08;;;;;;;47.58;23.13;;;-1.10;99.90;;;;;;5074073;28;20107;-79
2021/05/04 01:53:34;;;;;;;47.67;25.08;;;-1.10;99.90;;;;;;5075307;28;20526;-79
2021/05/04 01:56:00;;;;;;;48.83;24.17;;;-1.10;99.90;;;;;;5073975;28;20120;-79
2021/05/04 01:58:25;;;;;;;49.88;23.70;;;-1.00;99.90;;;;;;5074982;28;20079;-79
2021/05/04 02:00:51;;;;;;;45.45;22.23;;;-1.10;99.90;;;;;;5073138;28;20055;-79
2021/05/04 02:03:17;;;;;;;47.78;24.40;;;-1.10;99.90;;;;;;5075116;28;20048;-79
2021/05/04 02:05:42;;;;;;;51.78;24.85;;;-1.10;99.90;;;;;;5075043;28;20082;-79
2021/05/04 02:08:08;;;;;;;49.42;24.70;;;-1.10;99.90;;;;;;5073663;28;20028;-79
2021/05/04 02:10:34;;;;;;;43.95;23.25;;;-1.10;99.90;;;;;;5075087;28;20025;-79
2021/05/04 02:12:59;;;;;;;45.08;23.95;;;-1.10;99.90;;;;;;5073629;28;20096;-79
2021/05/04 02:15:26;;;;;;;44.80;24.13;;;-1.10;99.90;;;;;;5074944;28;20020;-79
2021/05/04 02:17:51;;;;;;;44.35;23.65;;;-1.10;99.90;;;;;;5074851;28;20028;-79
2021/05/04 02:20:17;;;;;;;51.50;26.08;;;-1.10;99.90;;;;;;5074759;28;20504;-79
2021/05/04 02:22:42;;;;;;;47.70;23.13;;;-1.10;99.90;;;;;;5073486;28;20108;-79
2021/05/04 02:25:10;;;;;;;43.63;25.05;;;-1.10;99.90;;;;;;5074682;28;20504;-79
2021/05/04 02:27:35;;;;;;;46.55;22.13;;;-1.20;99.90;;;;;;5073367;28;20535;-80
2021/05/04 02:30:02;;;;;;;53.65;23.42;;;-1.20;99.90;;;;;;5074585;28;20024;-79
2021/05/04 02:32:32;;;;;;;49.90;24.25;;;-1.20;99.90;;;;;;5074487;28;20034;-79
2021/05/04 02:34:57;;;;;;;48.47;24.25;;;-1.30;99.90;;;;;;5074529;28;20082;-79
2021/05/04 02:37:23;;;;;;;47.92;23.50;;;-1.30;99.90;;;;;;5073200;28;20474;-79
2021/05/04 02:39:49;;;;;;;53.75;24.05;;;-1.30;99.90;;;;;;5074484;28;20021;-79
2021/05/04 02:42:14;;;;;;;48.55;25.35;;;-1.30;99.90;;;;;;5073052;28;20496;-79
2021/05/04 02:44:40;;;;;;;60.97;26.83;;;-1.30;99.90;;;;;;5074290;28;20119;-79
2021/05/04 02:47:05;;;;;;;43.72;23.70;;;-1.40;99.90;;;;;;5072927;28;20061;-79
2021/05/04 02:49:31;;;;;;;46.60;24.08;;;-1.30;99.90;;;;;;5073008;28;20473;-79
2021/05/04 02:51:57;;;;;;;50.13;24.73;;;-1.30;99.90;;;;;;5072881;28;20063;-79
2021/05/04 02:54:22;;;;;;;47.33;23.92;;;-1.40;99.90;;;;;;5074117;28;20063;-79
2021/05/04 02:56:48;;;;;;;53.50;24.17;;;-1.40;99.90;;;;;;5072815;28;20459;-79
2021/05/04 02:59:13;;;;;;;50.30;25.25;;;-1.40;99.90;;;;;;5072663;28;20505;-79
2021/05/04 03:01:40;;;;;;;55.63;24.45;;;-1.40;99.90;;;;;;5072780;28;20017;-79
2021/05/04 03:04:05;;;;;;;63.05;27.75;;;-1.40;99.90;;;;;;5072433;28;20021;-79
2021/05/04 03:06:31;;;;;;;50.70;24.38;;;-1.40;99.90;;;;;;5073831;28;20580;-79
2021/05/04 03:08:58;;;;;;;50.90;22.77;;;-1.40;99.90;;;;;;5073857;28;20027;-79
2021/05/04 03:11:24;;;;;;;45.92;22.95;;;-1.40;99.90;;;;;;5072129;28;20398;-79
2021/05/04 03:13:50;;;;;;;47.38;23.60;;;-1.40;99.90;;;;;;5072401;28;20028;-80
2021/05/04 03:16:15;;;;;;;46.38;22.35;;;-1.40;99.90;;;;;;5072282;28;20536;-79
2021/05/04 03:18:41;;;;;;;48.55;25.25;;;-1.40;99.90;;;;;;5073640;28;20024;-79
2021/05/04 03:21:07;;;;;;;53.67;24.08;;;-1.40;99.90;;;;;;5073601;28;20067;-80
2021/05/04 03:23:32;;;;;;;50.03;23.23;;;-1.40;99.90;;;;;;5073489;28;20032;-79
2021/05/04 03:25:58;;;;;;;47.22;24.65;;;-1.40;99.90;;;;;;5073364;28;20078;-80
2021/05/04 03:28:23;;;;;;;49.22;25.48;;;-1.40;99.90;;;;;;5073417;28;20067;-79
2021/05/04 03:30:49;;;;;;;57.42;25.00;;;-1.40;99.90;;;;;;5073426;28;20025;-79
2021/05/04 03:33:15;;;;;;;61.05;26.27;;;-1.40;99.90;;;;;;5073847;28;20458;-79
2021/05/04 03:35:40;;;;;;;53.05;23.98;;;-1.30;99.90;;;;;;5072059;28;20027;-79
2021/05/04 03:38:06;;;;;;;59.83;28.15;;;-1.30;99.90;;;;;;5071933;28;20474;-79
2021/05/04 03:40:32;;;;;;;62.30;26.35;;;-1.30;99.90;;;;;;5073227;28;20394;-79
2021/05/04 03:43:01;;;;;;;70.25;27.92;;;-1.30;99.90;;;;;;5071896;28;20402;-79
2021/05/04 03:45:27;;;;;;;53.40;27.10;;;-1.20;99.90;;;;;;5073154;28;20043;-79
2021/05/04 03:47:53;;;;;;;57.40;25.30;;;-1.10;99.90;;;;;;5073133;28;20028;-79
2021/05/04 03:50:22;;;;;;;57.60;26.65;;;-0.90;99.90;;;;;;5073101;28;20024;-79
2021/05/04 03:52:51;;;;;;;63.35;26.35;;;-0.70;99.90;;;;;;5073067;28;20029;-79
2021/05/04 03:55:17;;;;;;;58.63;28.15;;;-0.60;99.90;;;;;;5071788;28;20024;-79
2021/05/04 03:57:43;;;;;;;54.70;26.30;;;-0.40;99.90;;;;;;5072993;28;20038;-80
2021/05/04 04:00:11;;;;;;;57.65;23.75;;;-0.30;99.90;;;;;;5071790;28;20054;-79
2021/05/04 04:02:37;;;;;;;53.40;26.85;;;-0.20;99.90;;;;;;5071637;28;20059;-80
2021/05/04 04:05:04;;;;;;;59.25;26.90;;;-0.10;99.90;;;;;;5072921;28;20182;-79
2021/05/04 04:07:30;;;;;;;55.78;25.73;;;0.00;99.90;;;;;;5072821;28;20025;-80
2021/05/04 04:09:56;;;;;;;61.15;29.25;;;0.20;99.90;;;;;;5072929;28;20021;-78
2021/05/04 04:12:23;;;;;;;57.17;29.80;;;0.30;99.90;;;;;;5072846;28;20134;-77
2021/05/04 04:14:49;;;;;;;66.78;29.48;;;0.40;99.90;;;;;;5071230;28;20055;-78
2021/05/04 04:17:15;;;;;;;59.97;33.40;;;0.50;99.90;;;;;;5068280;28;20066;-77
2021/05/04 04:19:41;;;;;;;66.10;35.53;;;0.60;99.90;;;;;;5072864;28;20025;-77
2021/05/04 04:22:06;;;;;;;63.22;34.83;;;0.80;99.90;;;;;;5071974;28;20052;-77
2021/05/04 04:24:32;;;;;;;63.45;34.72;;;0.80;99.60;;;;;;5071347;28;20059;-77
2021/05/04 04:26:58;;;;;;;77.53;45.50;;;1.00;99.90;;;;;;5072681;28;20497;-78
2021/05/04 04:29:24;;;;;;;62.83;32.58;;;1.00;98.90;;;;;;5071299;28;20024;-77
2021/05/04 04:31:49;;;;;;;56.88;29.58;;;1.10;98.50;;;;;;5072556;28;20021;-77
2021/05/04 04:34:15;;;;;;;56.60;29.30;;;1.20;98.30;;;;;;5060551;28;20376;-77
2021/05/04 04:36:41;;;;;;;58.97;29.85;;;1.30;98.10;;;;;;5066440;28;20139;-77
2021/05/04 04:39:06;;;;;;;61.65;30.08;;;1.40;98.30;;;;;;5053869;28;20075;-77
2021/05/04 04:41:34;;;;;;;73.22;31.55;;;1.40;98.20;;;;;;5052535;28;20032;-77
2021/05/04 04:44:00;;;;;;;72.57;32.53;;;1.50;98.60;;;;;;5050964;28;20021;-77
2021/05/04 04:46:39;;;;;;;126.25;47.63;;;1.50;98.80;;;;;;5051129;28;20029;-77
2021/05/04 04:49:05;;;;;;;90.60;38.40;;;1.60;99.50;;;;;;5051312;28;20032;-76
2021/05/04 04:51:31;;;;;;;81.20;31.42;;;1.60;99.90;;;;;;5052045;28;20021;-76
2021/05/04 04:53:56;;;;;;;80.82;34.83;;;1.80;99.90;;;;;;5052337;28;20021;-77
2021/05/04 04:56:22;;;;;;;76.35;31.15;;;1.90;99.90;;;;;;5053881;28;20479;-77
2021/05/04 04:58:48;;;;;;;93.82;38.42;;;2.00;99.90;;;;;;5061757;28;20382;-77
2021/05/04 05:01:13;;;;;;;154.27;56.28;;;2.10;99.90;;;;;;5062805;28;20028;-76
2021/05/04 05:03:39;;;;;;;187.88;70.03;;;2.20;99.90;;;;;;5052120;28;20021;-75
2021/05/04 05:06:04;;;;;;;191.95;69.65;;;2.30;99.90;;;;;;5050844;28;20091;-76
2021/05/04 05:08:30;;;;;;;205.07;74.80;;;2.40;99.90;;;;;;5050843;28;20025;-76
2021/05/04 05:10:56;;;;;;;460.98;148.02;;;2.50;99.90;;;;;;5061040;28;20394;-76
2021/05/04 05:13:21;;;;;;;431.27;131.70;;;2.60;99.90;;;;;;5072054;28;20138;-76
2021/05/04 05:15:47;;;;;;;338.73;103.68;;;2.80;99.90;;;;;;5070994;28;20131;-75
2021/05/04 05:18:12;;;;;;;249.85;84.10;;;3.00;99.90;;;;;;5069303;28;20626;-76
2021/05/04 05:20:38;;;;;;;120.65;46.05;;;3.20;99.90;;;;;;5069326;28;20019;-76
2021/05/04 05:23:04;;;;;;;70.35;24.27;;;3.50;99.90;;;;;;5069431;28;20535;-76
2021/05/04 05:25:30;;;;;;;42.00;19.77;;;3.70;90.70;;;;;;5070128;28;20104;-76
2021/05/04 05:27:55;;;;;;;30.52;14.60;;;4.00;87.90;;;;;;5070641;28;20020;-76
2021/05/04 05:30:21;;;;;;;28.35;13.07;;;4.20;81.40;;;;;;5071201;28;20062;-76
2021/05/04 05:32:47;;;;;;;22.50;11.30;;;4.50;76.10;;;;;;5071532;28;20021;-76
2021/05/04 05:35:13;;;;;;;92.85;32.50;;;4.80;73.10;;;;;;5075315;28;20429;-76
2021/05/04 05:37:38;;;;;;;172.98;61.47;;;5.10;74.40;;;;;;5075438;28;20024;-77
2021/05/04 05:40:05;;;;;;;83.68;33.42;;;5.40;73.60;;;;;;5074245;28;20070;-76
2021/05/04 05:42:30;;;;;;;90.57;31.33;;;5.60;72.50;;;;;;5075422;28;20541;-77
2021/05/04 05:44:56;;;;;;;85.60;28.95;;;5.80;69.90;;;;;;5073858;28;20127;-77
2021/05/04 05:47:21;;;;;;;180.50;51.88;;;6.10;71.00;;;;;;5075440;28;20107;-77
2021/05/04 05:49:47;;;;;;;84.75;33.08;;;6.30;65.50;;;;;;5073467;28;20024;-77
2021/05/04 05:52:13;;;;;;;68.38;26.00;;;6.50;63.30;;;;;;5073368;28;20537;-77
2021/05/04 05:54:39;;;;;;;60.88;25.95;;;6.80;65.10;;;;;;5075003;28;20558;-77
2021/05/04 05:57:05;;;;;;;142.70;23.98;;;7.00;65.60;;;;;;5073411;28;20417;-77
2021/05/04 05:59:30;;;;;;;42.38;16.67;;;7.20;64.40;;;;;;5074134;28;20033;-77
2021/05/04 06:01:56;;;;;;;35.38;16.17;;;7.50;63.30;;;;;;5075197;28;20029;-77
2021/05/04 06:04:22;;;;;;;26.70;13.07;;;7.70;62.60;;;;;;5073853;28;20032;-77
2021/05/04 06:06:47;;;;;;;20.13;9.32;;;7.90;60.90;;;;;;5075102;28;20113;-77
2021/05/04 06:09:13;;;;;;;21.13;9.52;;;8.10;57.20;;;;;;5073782;28;20117;-77
2021/05/04 06:11:40;;;;;;;19.48;10.05;;;8.30;57.40;;;;;;5075068;28;20474;-77
2021/05/04 06:14:06;;;;;;;14.25;7.47;;;8.50;57.50;;;;;;5074948;28;20138;-77
2021/05/04 06:16:32;;;;;;;17.98;9.52;;;8.70;56.70;;;;;;5074872;28;20032;-77
2021/05/04 06:18:57;;;;;;;18.38;10.10;;;9.00;55.90;;;;;;5074089;28;20024;-77
2021/05/04 06:21:23;;;;;;;10.50;5.72;;;9.20;56.50;;;;;;5073485;28;20037;-77
2021/05/04 06:23:48;;;;;;;9.48;5.10;;;9.40;55.50;;;;;;5074337;28;20020;-77
2021/05/04 06:26:16;;;;;;;71.32;33.70;;;9.50;55.40;;;;;;5074563;28;20063;-77
2021/05/04 06:28:46;;;;;;;12.18;6.63;;;9.60;55.20;;;;;;5074719;28;20031;-77
2021/05/04 06:31:14;;;;;;;6.85;3.90;;;9.60;55.00;;;;;;5074637;28;20471;-77
2021/05/04 06:33:40;;;;;;;18.73;6.43;;;9.80;54.40;;;;;;5074569;28;20542;-77
2021/05/04 06:36:06;;;;;;;8.77;4.50;;;10.00;53.10;;;;;;5074543;28;20112;-77
2021/05/04 06:38:31;;;;;;;10.13;4.28;;;10.20;52.80;;;;;;5073156;28;20382;-77
2021/05/04 06:40:57;;;;;;;11.30;5.70;;;10.30;52.10;;;;;;5074407;28;20020;-77
2021/05/04 06:43:23;;;;;;;8.07;4.82;;;10.60;51.90;;;;;;5073032;28;20040;-78
2021/05/04 06:45:49;;;;;;;10.77;4.22;;;10.80;51.30;;;;;;5073451;28;20055;-77
2021/05/04 06:48:15;;;;;;;11.38;5.65;;;11.00;50.10;;;;;;5074235;28;20025;-77
2021/05/04 06:50:40;;;;;;;8.35;3.53;;;11.10;49.60;;;;;;5068576;28;20509;-77
2021/05/04 06:53:06;;;;;;;4.78;3.22;;;11.00;48.10;;;;;;5053996;28;20028;-77
2021/05/04 06:55:32;;;;;;;6.43;5.13;;;10.90;48.30;;;;;;5057581;28;20485;-77
2021/05/04 06:57:58;;;;;;;5.72;3.83;;;10.90;48.10;;;;;;5062963;28;20040;-77
2021/05/04 07:00:24;;;;;;;4.28;3.63;;;10.80;48.20;;;;;;5061576;28;20414;-77
2021/05/04 07:02:50;;;;;;;6.18;3.60;;;11.00;48.40;;;;;;5063198;28;20017;-77
2021/05/04 07:05:16;;;;;;;12.43;5.97;;;11.00;48.90;;;;;;5061218;28;20433;-77
2021/05/04 07:07:42;;;;;;;8.85;5.68;;;11.10;49.80;;;;;;5060274;28;20036;-77
2021/05/04 07:10:08;;;;;;;9.43;4.05;;;11.00;48.10;;;;;;5063416;28;20390;-77
2021/05/04 07:12:34;;;;;;;7.68;3.72;;;10.90;49.00;;;;;;5060400;28;20028;-77
2021/05/04 07:14:59;;;;;;;7.30;4.05;;;10.80;49.00;;;;;;5063371;28;20021;-77
2021/05/04 07:17:26;;;;;;;8.02;5.03;;;10.70;49.10;;;;;;5073646;28;20043;-77
2021/05/04 07:19:54;;;;;;;6.13;4.32;;;10.60;49.90;;;;;;5073713;28;20456;-77
2021/05/04 07:22:24;;;;;;;7.65;4.80;;;10.70;50.50;;;;;;5073602;28;20432;-77
2021/05/04 07:24:50;;;;;;;9.10;4.47;;;10.70;49.30;;;;;;5073420;28;20486;-77
2021/05/04 07:27:16;;;;;;;8.98;4.70;;;10.80;50.30;;;;;;5072257;28;20017;-79
2021/05/04 07:29:41;;;;;;;5.97;4.53;;;10.80;49.70;;;;;;5067825;28;20028;-78
2021/05/04 07:32:07;;;;;;;9.52;3.47;;;11.00;49.40;;;;;;5060018;28;20115;-78
2021/05/04 07:34:33;;;;;;;5.72;3.78;;;11.30;49.40;;;;;;5058678;28;20028;-78
2021/05/04 07:36:58;;;;;;;6.18;4.60;;;11.50;49.10;;;;;;5059107;28;20083;-78
2021/05/04 07:39:24;;;;;;;3.90;2.83;;;11.80;49.20;;;;;;5060247;28;20461;-78
2021/05/04 07:41:49;;;;;;;9.57;5.53;;;11.90;49.50;;;;;;5062808;28;20066;-78
2021/05/04 07:44:15;;;;;;;14.55;9.23;;;11.80;48.80;;;;;;5061025;28;20021;-78
2021/05/04 07:46:41;;;;;;;3.40;3.10;;;12.00;49.00;;;;;;5061891;28;20070;-78
2021/05/04 07:49:10;;;;;;;3.55;3.25;;;11.80;48.40;;;;;;5062517;28;20021;-78
2021/05/04 07:51:37;;;;;;;7.55;3.85;;;11.90;47.90;;;;;;5061065;28;20108;-78
2021/05/04 07:54:03;;;;;;;9.45;4.57;;;12.20;48.90;;;;;;5061487;28;20103;-78
2021/05/04 07:56:28;;;;;;;6.78;3.75;;;12.50;49.60;;;;;;5060992;28;20111;-78
2021/05/04 07:58:54;;;;;;;4.85;3.28;;;12.60;49.10;;;;;;5060372;28;20112;-78
2021/05/04 08:01:20;;;;;;;5.13;4.40;;;12.50;47.30;;;;;;5061671;28;20017;-78
2021/05/04 08:03:45;;;;;;;4.80;3.33;;;12.40;47.30;;;;;;5060926;28;20067;-78
2021/05/04 08:06:11;;;;;;;4.63;3.50;;;12.70;47.90;;;;;;5060591;28;20039;-78
2021/05/04 08:08:36;;;;;;;7.15;3.83;;;12.80;47.60;;;;;;5062100;28;20485;-78
2021/05/04 08:11:02;;;;;;;6.63;4.13;;;12.80;46.70;;;;;;5061715;28;20021;-78
2021/05/04 08:13:28;;;;;;;4.93;3.95;;;12.70;46.50;;;;;;5060453;28;20028;-78
2021/05/04 08:15:54;;;;;;;7.07;4.10;;;12.90;47.30;;;;;;5062458;28;20028;-78
2021/05/04 08:18:20;;;;;;;6.50;4.00;;;13.20;47.90;;;;;;5061072;28;20055;-78
2021/05/04 08:20:54;;;;;;;7.80;4.35;;;13.30;47.30;;;;;;5059460;28;20151;-76
2021/05/04 08:23:24;;;;;;;5.38;3.90;;;13.40;46.80;;;;;;5054951;28;20025;-76
2021/05/04 08:25:50;;;;;;;4.18;3.40;;;13.30;46.50;;;;;;5052787;28;20082;-76
2021/05/04 08:28:15;;;;;;;4.18;3.33;;;13.20;46.20;;;;;;5052708;28;20100;-79
2021/05/04 08:30:42;;;;;;;5.63;3.40;;;13.40;47.00;;;;;;5052736;28;20021;-78
2021/05/04 08:33:07;;;;;;;7.32;4.72;;;13.50;47.20;;;;;;5052662;28;20064;-79
2021/05/04 08:35:33;;;;;;;12.27;4.82;;;13.50;46.50;;;;;;5051987;28;20448;-79
2021/05/04 08:37:59;;;;;;;3.78;3.38;;;13.70;46.20;;;;;;5052338;28;20067;-77
2021/05/04 08:40:26;;;;;;;5.90;3.72;;;13.80;46.10;;;;;;5051330;28;20050;-76
2021/05/04 08:42:53;;;;;;;6.90;3.50;;;14.00;46.70;;;;;;5052531;28;20075;-77
2021/05/04 08:45:19;;;;;;;4.32;3.55;;;14.00;45.90;;;;;;5052486;28;20494;-77
2021/05/04 08:47:48;;;;;;;9.13;3.78;;;14.10;45.60;;;;;;5052533;28;20378;-76
2021/05/04 08:50:15;;;;;;;4.57;3.47;;;14.30;46.30;;;;;;5052494;28;20029;-77
2021/05/04 08:52:42;;;;;;;4.00;3.22;;;14.40;45.80;;;;;;5052566;28;20501;-77
2021/05/04 08:55:09;;;;;;;14.02;9.38;;;14.50;45.80;;;;;;5052491;28;20025;-77
2021/05/04 08:57:37;;;;;;;12.75;6.35;;;14.50;45.20;;;;;;5052246;28;20528;-76
2021/05/04 09:00:08;;;;;;;7.78;5.13;;;14.70;45.20;;;;;;5052478;28;20024;-77
2021/05/04 09:02:56;;;;;;;5.65;4.32;;;14.80;44.50;;;;;;5052320;28;20482;-77
2021/05/04 09:05:22;;;;;;;14.95;4.18;;;14.70;44.30;;;;;;5052292;28;20033;-77
2021/05/04 09:07:48;;;;;;;7.05;4.15;;;14.90;44.50;;;;;;5052294;28;20028;-77
2021/05/04 09:13:01;;;;;;;4.72;3.75;;;14.70;44.00;;;;;;5056366;28;20040;-77
2021/05/04 09:21:38;;;;;;;5.97;2.97;;;14.20;43.80;;;;;;5048113;28;20060;-76
2021/05/04 09:24:20;;;;;;;3.72;2.70;;;14.10;44.70;;;;;;5055888;28;20032;-77
2021/05/04 09:26:47;;;;;;;4.50;2.85;;;14.30;45.20;;;;;;5055871;28;20498;-76
2021/05/04 09:29:13;;;;;;;4.55;3.33;;;14.20;44.50;;;;;;5055887;28;20071;-76
2021/05/04 09:31:40;;;;;;;4.03;3.17;;;14.50;45.80;;;;;;5054383;28;20021;-77
2021/05/04 09:34:11;;;;;;;6.15;3.75;;;14.70;45.70;;;;;;5054608;28;20025;-76
2021/05/04 09:36:37;;;;;;;3.08;2.40;;;14.80;44.50;;;;;;5053829;28;20510;-77
2021/05/04 09:39:03;;;;;;;5.25;2.53;;;14.90;44.00;;;;;;5052572;28;20101;-76
2021/05/04 09:41:29;;;;;;;4.28;2.72;;;14.90;43.80;;;;;;5053383;28;20086;-76
2021/05/04 09:43:55;;;;;;;2.88;2.28;;;15.00;43.40;;;;;;5054311;28;20021;-77
2021/05/04 09:46:42;;;;;;;5.63;2.20;;;15.20;43.60;;;;;;5053894;28;20029;-77
2021/05/04 09:49:44;;;;;;;3.28;2.53;;;15.20;42.90;;;;;;5054861;28;20506;-76
2021/05/04 09:52:46;;;;;;;2.65;1.90;;;15.00;42.20;;;;;;5013456;28;20022;-77
2021/05/04 09:55:14;;;;;;;2.57;2.27;;;15.40;43.20;;;;;;5054140;28;20513;-77
2021/05/04 09:57:44;;;;;;;4.25;2.38;;;15.60;43.10;;;;;;5055266;28;20427;-77
2021/05/04 10:00:12;;;;;;;3.00;2.70;;;15.50;42.50;;;;;;5055266;28;20025;-77
2021/05/04 10:02:38;;;;;;;7.43;2.78;;;15.70;43.10;;;;;;5055078;28;20021;-77
2021/05/04 10:05:07;;;;;;;5.85;3.53;;;15.80;43.30;;;;;;5054483;28;20059;-77
2021/05/04 10:07:33;;;;;;;3.30;3.00;;;15.90;42.60;;;;;;5055057;28;20074;-77
2021/05/04 10:10:00;;;;;;;3.08;2.75;;;15.90;42.40;;;;;;5055118;28;20386;-77
2021/05/04 10:12:28;;;;;;;2.85;2.65;;;15.90;42.20;;;;;;5053702;28;20480;-77
2021/05/04 10:14:57;;;;;;;2.78;2.50;;;15.70;41.30;;;;;;5053730;28;20021;-77
2021/05/04 10:17:24;;;;;;;3.95;2.90;;;15.70;41.50;;;;;;5054905;28;20028;-77
2021/05/04 10:19:50;;;;;;;6.32;3.72;;;15.80;42.20;;;;;;5054027;28;20021;-77
2021/05/04 10:22:17;;;;;;;23.40;13.18;;;15.80;42.50;;;;;;5054550;28;20028;-76
2021/05/04 10:24:44;;;;;;;36.63;19.20;;;15.90;43.20;;;;;;5054536;28;20033;-76
2021/05/04 10:27:10;;;;;;;17.30;12.38;;;15.90;42.10;;;;;;5052972;28;20017;-77
2021/05/04 10:29:41;;;;;;;4.15;3.22;;;16.00;42.60;;;;;;5054651;28;20017;-77
2021/05/04 10:32:13;;;;;;;8.18;2.95;;;15.80;42.10;;;;;;5054581;28;20021;-77
2021/05/04 10:34:41;;;;;;;4.10;3.40;;;15.70;41.50;;;;;;5053429;28;20450;-77
2021/05/04 10:37:12;;;;;;;6.40;5.28;;;15.70;41.70;;;;;;5053258;28;20056;-77
2021/05/04 10:39:46;;;;;;;8.60;4.60;;;15.80;42.20;;;;;;5056897;28;20028;-77
2021/05/04 10:42:29;;;;;;;4.70;3.40;;;16.00;43.90;;;;;;5071840;28;20814;-76
2021/05/04 10:44:58;;;;;;;4.88;4.47;;;15.90;42.50;;;;;;5072305;28;20089;-77
2021/05/04 10:47:42;;;;;;;7.50;4.80;;;15.90;42.70;;;;;;5073550;28;20060;-77
2021/05/04 10:50:14;;;;;;;2.53;2.30;;;16.10;42.40;;;;;;5073350;28;20024;-77
2021/05/04 10:52:49;;;;;;;9.57;7.13;;;16.20;42.30;;;;;;5071070;28;20108;-77
2021/05/04 10:55:20;;;;;;;8.02;4.80;;;16.40;42.60;;;;;;5071910;28;20050;-77
2021/05/04 10:58:01;;;;;;;8.52;4.90;;;16.40;41.70;;;;;;5073353;28;20108;-77
2021/05/04 11:00:48;;;;;;;4.05;2.60;;;16.50;42.40;;;;;;5072238;28;20486;-77
2021/05/04 11:03:29;;;;;;;10.32;5.90;;;16.60;42.30;;;;;;5072100;28;20042;-77
2021/05/04 11:06:21;;;;;;;3.88;2.83;;;16.60;42.60;;;;;;5073205;28;20033;-77
2021/05/04 11:08:49;;;;;;;3.53;2.10;;;16.50;41.20;;;;;;5064969;28;20037;-77
2021/05/04 11:11:41;;;;;;;4.07;3.15;;;16.30;41.00;;;;;;5071805;28;20505;-77
2021/05/04 11:14:12;;;;;;;5.78;3.50;;;16.50;41.90;;;;;;5071989;28;20016;-77
2021/05/04 11:16:45;;;;;;;3.17;2.63;;;16.60;42.10;;;;;;5073047;28;20021;-77
2021/05/04 11:19:30;;;;;;;3.60;2.60;;;16.80;41.50;;;;;;5071692;28;20028;-77
2021/05/04 11:21:59;;;;;;;12.57;7.68;;;17.10;41.20;;;;;;5072929;28;20424;-77
2021/05/04 11:24:31;;;;;;;6.28;3.13;;;17.50;41.50;;;;;;5071498;28;20035;-77
2021/05/04 11:26:58;;;;;;;4.53;2.15;;;17.80;40.50;;;;;;5072680;28;20066;-77
2021/05/04 11:29:40;;;;;;;25.58;12.93;;;17.70;39.60;;;;;;5073326;28;20024;-77
2021/05/04 11:32:17;;;;;;;3.15;2.88;;;17.70;39.70;;;;;;5071947;28;20020;-78
2021/05/04 11:34:46;;;;;;;17.30;8.88;;;17.80;39.90;;;;;;5073469;28;20024;-77
2021/05/04 11:37:22;;;;;;;29.58;14.88;;;18.00;39.00;;;;;;5071974;28;20028;-78
2021/05/04 11:39:55;;;;;;;3.88;2.50;;;18.30;39.10;;;;;;5073330;28;20040;-77
2021/05/04 11:42:39;;;;;;;4.47;1.83;;;18.30;37.00;;;;;;5064962;28;20028;-78
2021/05/04 11:45:13;;;;;;;4.60;2.92;;;18.50;37.10;;;;;;5068487;28;20048;-77
2021/05/04 11:47:43;;;;;;;4.10;2.60;;;18.60;35.90;;;;;;5053078;28;20017;-77
2021/05/04 11:50:22;;;;;;;3.75;1.98;;;18.50;34.50;;;;;;5060960;28;20024;-80
2021/05/04 11:52:55;;;;;;;2.53;2.28;;;18.50;34.20;;;;;;5061748;28;20025;-80
2021/05/04 11:55:34;;;;;;;2.13;1.80;;;18.30;33.10;;;;;;5085354;28;20017;-80
2021/05/04 11:58:22;;;;;;;2.90;2.20;;;18.20;32.90;;;;;;5061204;28;20045;-80
2021/05/04 12:00:58;;;;;;;3.05;1.70;;;17.90;33.10;;;;;;5086181;28;20069;-80
2021/05/04 12:03:24;;;;;;;3.25;1.98;;;17.70;33.30;;;;;;5060569;28;20025;-80
2021/05/04 12:05:50;;;;;;;1.58;1.48;;;17.70;34.20;;;;;;5061049;28;20451;-80
2021/05/04 12:08:16;;;;;;;3.30;2.35;;;17.80;34.20;;;;;;5065619;28;20490;-80
2021/05/04 12:10:50;;;;;;;4.22;2.20;;;18.10;34.60;;;;;;5063322;28;20052;-80
2021/05/04 12:13:24;;;;;;;2.42;1.70;;;17.90;33.60;;;;;;5059069;28;20441;-80
2021/05/04 12:15:57;;;;;;;3.08;1.60;;;17.80;33.10;;;;;;5058930;28;20462;-80
2021/05/04 12:18:28;;;;;;;5.05;1.75;;;18.00;34.40;;;;;;5053567;28;20028;-80
2021/05/04 12:20:58;;;;;;;3.45;2.03;;;18.00;35.00;;;;;;5052799;28;20171;-80
2021/05/04 12:23:34;;;;;;;3.38;1.98;;;18.20;35.10;;;;;;5052421;28;20025;-80
2021/05/04 12:26:09;;;;;;;3.90;2.15;;;18.10;33.80;;;;;;5057638;28;20044;-79
2021/05/04 12:28:54;;;;;;;2.90;1.92;;;18.30;33.10;;;;;;5060081;28;20028;-78
2021/05/04 12:31:32;;;;;;;2.00;1.80;;;18.20;31.80;;;;;;5059655;28;20103;-77
2021/05/04 12:33:58;;;;;;;3.08;1.80;;;18.30;32.20;;;;;;5060321;28;20021;-77
2021/05/04 12:36:47;;;;;;;8.27;2.72;;;18.20;31.10;;;;;;5061740;28;20040;-78
2021/05/04 12:39:19;;;;;;;7.15;2.67;;;18.50;31.90;;;;;;5068944;28;20032;-79
2021/05/04 12:41:49;;;;;;;3.17;1.80;;;18.60;32.20;;;;;;5071050;28;20040;-78
2021/05/04 12:44:23;;;;;;;6.15;2.05;;;18.60;32.00;;;;;;5073084;28;20028;-79
2021/05/04 12:47:11;;;;;;;4.50;2.55;;;18.60;31.10;;;;;;5074963;28;20036;-79
2021/05/04 12:49:39;;;;;;;10.70;3.03;;;18.80;31.90;;;;;;5070904;28;20033;-78
2021/05/04 12:52:08;;;;;;;10.05;3.88;;;18.90;30.50;;;;;;5062636;28;20048;-78